sensor_id;sensor_type;location;lat;lon;timestamp;temperature;humidity
28244;DHT22;15510;52.512;13.300;2023-04-01T00:00:20;10.10;99.90
28244;DHT22;15510;52.512;13.300;2023-04-01T00:02:47;10.10;99.90
28244;DHT22;15510;52.512;13.300;2023-04-01T00:05:13;10.00;99.90
28244;DHT22;15510;52.512;13.300;2023-04-01T00:07:39;10.10;99.90
28244;DHT22;15510;52.512;13.300;2023-04-01T00:10:10;10.10;99.90
28244;DHT22;15510;52.512;13.300;2023-04-01T00:12:38;10.20;99.90
28244;DHT22;15510;52.512;13.300;2023-04-01T00:15:06;10.20;99.90
28244;DHT22;15510;52.512;13.300;2023-04-01T00:17:32;10.30;99.90
28244;DHT22;15510;52.512;13.300;2023-04-01T00:19:58;10.30;99.90
28244;DHT22;15510;52.512;13.300;2023-04-01T00:22:25;10.30;99.90
28244;DHT22;15510;52.512;13.300;2023-04-01T00:24:51;10.30;99.90
28244;DHT22;15510;52.512;13.300;2023-04-01T00:27:17;10.30;99.90
28244;DHT22;15510;52.512;13.300;2023-04-01T00:29:44;10.20;99.90
28244;DHT22;15510;52.512;13.300;2023-04-01T00:32:10;10.20;99.90
28244;DHT22;15510;52.512;13.300;2023-04-01T00:34:36;10.20;99.90
28244;DHT22;15510;52.512;13.300;2023-04-01T00:37:02;10.20;99.90
28244;DHT22;15510;52.512;13.300;2023-04-01T00:39:31;10.10;99.90
28244;DHT22;15510;52.512;13.300;2023-04-01T00:41:59;10.20;99.90
28244;DHT22;15510;52.512;13.300;2023-04-01T00:44:27;10.20;99.90
28244;DHT22;15510;52.512;13.300;2023-04-01T00:46:53;10.20;99.90
28244;DHT22;15510;52.512;13.300;2023-04-01T00:49:22;10.20;99.90
28244;DHT22;15510;52.512;13.300;2023-04-01T00:51:51;10.20;99.90
28244;DHT22;15510;52.512;13.300;2023-04-01T00:54:19;10.20;99.90
28244;DHT22;15510;52.512;13.300;2023-04-01T00:57:00;10.20;99.90
28244;DHT22;15510;52.512;13.300;2023-04-01T00:59:32;10.20;99.90
28244;DHT22;15510;52.512;13.300;2023-04-01T01:02:01;10.30;99.90
28244;DHT22;15510;52.512;13.300;2023-04-01T01:04:30;10.30;99.90
28244;DHT22;15510;52.512;13.300;2023-04-01T01:12:46;10.40;99.90
28244;DHT22;15510;52.512;13.300;2023-04-01T01:29:06;10.20;99.90
28244;DHT22;15510;52.512;13.300;2023-04-01T01:31:46;10.20;99.90
28244;DHT22;15510;52.512;13.300;2023-04-01T01:37:01;10.20;99.90
28244;DHT22;15510;52.512;13.300;2023-04-01T01:39:30;10.20;99.90
28244;DHT22;15510;52.512;13.300;2023-04-01T01:42:01;10.20;99.90
28244;DHT22;15510;52.512;13.300;2023-04-01T01:44:29;10.20;99.90
28244;DHT22;15510;52.512;13.300;2023-04-01T01:46:56;10.20;99.90
28244;DHT22;15510;52.512;13.300;2023-04-01T01:49:23;10.20;99.90
28244;DHT22;15510;52.512;13.300;2023-04-01T01:51:50;10.30;99.90
28244;DHT22;15510;52.512;13.300;2023-04-01T01:54:17;10.40;99.90
28244;DHT22;15510;52.512;13.300;2023-04-01T01:56:48;10.40;99.90
28244;DHT22;15510;52.512;13.300;2023-04-01T01:59:16;10.40;99.90
28244;DHT22;15510;52.512;13.300;2023-04-01T02:01:48;10.50;99.90
28244;DHT22;15510;52.512;13.300;2023-04-01T02:04:16;10.50;99.90
28244;DHT22;15510;52.512;13.300;2023-04-01T02:06:54;10.50;99.90
28244;DHT22;15510;52.512;13.300;2023-04-01T02:09:21;10.40;99.90
28244;DHT22;15510;52.512;13.300;2023-04-01T02:11:54;10.50;99.90
28244;DHT22;15510;52.512;13.300;2023-04-01T02:14:39;10.40;99.90
28244;DHT22;15510;52.512;13.300;2023-04-01T02:17:24;10.40;99.90
28244;DHT22;15510;52.512;13.300;2023-04-01T02:19:57;10.40;99.90
28244;DHT22;15510;52.512;13.300;2023-04-01T02:22:32;10.40;99.90
28244;DHT22;15510;52.512;13.300;2023-04-01T02:25:08;10.40;99.90
28244;DHT22;15510;52.512;13.300;2023-04-01T02:27:34;10.40;99.90
28244;DHT22;15510;52.512;13.300;2023-04-01T02:30:00;10.50;99.90
28244;DHT22;15510;52.512;13.300;2023-04-01T02:32:27;10.50;99.90
28244;DHT22;15510;52.512;13.300;2023-04-01T02:34:55;10.40;99.90
28244;DHT22;15510;52.512;13.300;2023-04-01T02:37:21;10.40;99.90
28244;DHT22;15510;52.512;13.300;2023-04-01T02:39:47;10.40;99.90
28244;DHT22;15510;52.512;13.300;2023-04-01T02:42:13;10.30;99.90
28244;DHT22;15510;52.512;13.300;2023-04-01T02:44:39;10.30;99.90
28244;DHT22;15510;52.512;13.300;2023-04-01T02:47:05;10.30;99.90
28244;DHT22;15510;52.512;13.300;2023-04-01T02:49:31;10.30;99.90
28244;DHT22;15510;52.512;13.300;2023-04-01T02:51:56;10.20;99.90
28244;DHT22;15510;52.512;13.300;2023-04-01T02:54:22;10.30;99.90
28244;DHT22;15510;52.512;13.300;2023-04-01T02:56:48;10.40;99.90
28244;DHT22;15510;52.512;13.300;2023-04-01T02:59:14;10.40;99.90
28244;DHT22;15510;52.512;13.300;2023-04-01T03:01:40;10.50;99.90
28244;DHT22;15510;52.512;13.300;2023-04-01T03:04:06;10.50;99.90
28244;DHT22;15510;52.512;13.300;2023-04-01T03:06:31;10.50;99.90
28244;DHT22;15510;52.512;13.300;2023-04-01T03:08:57;10.40;99.90
28244;DHT22;15510;52.512;13.300;2023-04-01T03:11:23;10.40;99.90
28244;DHT22;15510;52.512;13.300;2023-04-01T03:13:49;10.40;99.90
28244;DHT22;15510;52.512;13.300;2023-04-01T03:16:15;10.40;99.90
28244;DHT22;15510;52.512;13.300;2023-04-01T03:18:41;10.40;99.90
28244;DHT22;15510;52.512;13.300;2023-04-01T03:21:18;10.40;99.90
28244;DHT22;15510;52.512;13.300;2023-04-01T03:23:44;10.40;99.90
28244;DHT22;15510;52.512;13.300;2023-04-01T03:26:10;10.40;99.90
28244;DHT22;15510;52.512;13.300;2023-04-01T03:28:36;10.40;99.90
28244;DHT22;15510;52.512;13.300;2023-04-01T03:31:02;10.60;99.90
28244;DHT22;15510;52.512;13.300;2023-04-01T03:33:31;10.60;99.90
28244;DHT22;15510;52.512;13.300;2023-04-01T03:35:57;10.60;99.90
28244;DHT22;15510;52.512;13.300;2023-04-01T03:38:24;10.60;99.90
28244;DHT22;15510;52.512;13.300;2023-04-01T03:40:49;10.60;99.90
28244;DHT22;15510;52.512;13.300;2023-04-01T03:43:15;10.60;99.90
28244;DHT22;15510;52.512;13.300;2023-04-01T03:45:50;10.60;99.90
28244;DHT22;15510;52.512;13.300;2023-04-01T03:48:16;10.60;99.90
28244;DHT22;15510;52.512;13.300;2023-04-01T03:50:42;10.60;99.90
28244;DHT22;15510;52.512;13.300;2023-04-01T03:53:09;10.50;99.90
28244;DHT22;15510;52.512;13.300;2023-04-01T03:55:37;10.50;99.90
28244;DHT22;15510;52.512;13.300;2023-04-01T03:58:04;10.50;99.90
28244;DHT22;15510;52.512;13.300;2023-04-01T04:00:30;10.60;99.90
28244;DHT22;15510;52.512;13.300;2023-04-01T04:02:56;10.50;99.90
28244;DHT22;15510;52.512;13.300;2023-04-01T04:05:28;10.60;99.90
28244;DHT22;15510;52.512;13.300;2023-04-01T04:07:54;10.60;99.90
28244;DHT22;15510;52.512;13.300;2023-04-01T04:10:21;10.50;99.90
28244;DHT22;15510;52.512;13.300;2023-04-01T04:12:49;10.50;99.90
28244;DHT22;15510;52.512;13.300;2023-04-01T04:15:16;10.50;99.90
28244;DHT22;15510;52.512;13.300;2023-04-01T04:17:41;10.60;99.90
28244;DHT22;15510;52.512;13.300;2023-04-01T04:20:08;10.50;99.90
28244;DHT22;15510;52.512;13.300;2023-04-01T04:22:34;10.50;99.90
28244;DHT22;15510;52.512;13.300;2023-04-01T04:25:02;10.50;99.90
28244;DHT22;15510;52.512;13.300;2023-04-01T04:27:29;10.50;99.90
28244;DHT22;15510;52.512;13.300;2023-04-01T04:30:06;10.50;99.90
28244;DHT22;15510;52.512;13.300;2023-04-01T04:32:32;10.50;99.90
28244;DHT22;15510;52.512;13.300;2023-04-01T04:34:58;10.40;99.90
28244;DHT22;15510;52.512;13.300;2023-04-01T04:37:24;10.40;99.90
28244;DHT22;15510;52.512;13.300;2023-04-01T04:39:51;10.40;99.90
28244;DHT22;15510;52.512;13.300;2023-04-01T04:42:18;10.40;99.90
28244;DHT22;15510;52.512;13.300;2023-04-01T04:44:44;10.40;99.90
28244;DHT22;15510;52.512;13.300;2023-04-01T04:47:10;10.50;99.90
28244;DHT22;15510;52.512;13.300;2023-04-01T04:49:36;10.50;99.90
28244;DHT22;15510;52.512;13.300;2023-04-01T04:52:06;10.50;99.90
28244;DHT22;15510;52.512;13.300;2023-04-01T04:54:32;10.50;99.90
28244;DHT22;15510;52.512;13.300;2023-04-01T04:56:59;10.60;99.90
28244;DHT22;15510;52.512;13.300;2023-04-01T04:59:28;10.60;99.90
28244;DHT22;15510;52.512;13.300;2023-04-01T05:02:05;10.50;99.90
28244;DHT22;15510;52.512;13.300;2023-04-01T05:04:35;10.50;99.90
28244;DHT22;15510;52.512;13.300;2023-04-01T05:07:02;10.50;99.90
28244;DHT22;15510;52.512;13.300;2023-04-01T05:09:28;10.50;99.90
28244;DHT22;15510;52.512;13.300;2023-04-01T05:11:56;10.40;99.90
28244;DHT22;15510;52.512;13.300;2023-04-01T05:14:24;10.40;99.90
28244;DHT22;15510;52.512;13.300;2023-04-01T05:17:04;10.30;99.90
28244;DHT22;15510;52.512;13.300;2023-04-01T05:19:29;10.40;99.90
28244;DHT22;15510;52.512;13.300;2023-04-01T05:21:55;10.40;99.90
28244;DHT22;15510;52.512;13.300;2023-04-01T05:24:21;10.40;99.90
28244;DHT22;15510;52.512;13.300;2023-04-01T05:26:47;10.40;99.90
28244;DHT22;15510;52.512;13.300;2023-04-01T05:29:13;10.40;99.90
28244;DHT22;15510;52.512;13.300;2023-04-01T05:31:40;10.40;99.90
28244;DHT22;15510;52.512;13.300;2023-04-01T05:34:07;10.50;99.90
28244;DHT22;15510;52.512;13.300;2023-04-01T05:36:33;10.50;99.90
28244;DHT22;15510;52.512;13.300;2023-04-01T05:38:58;10.50;99.90
28244;DHT22;15510;52.512;13.300;2023-04-01T05:41:29;10.60;99.90
28244;DHT22;15510;52.512;13.300;2023-04-01T05:43:55;10.60;99.90
28244;DHT22;15510;52.512;13.300;2023-04-01T05:46:46;10.70;99.90
28244;DHT22;15510;52.512;13.300;2023-04-01T05:49:23;10.80;99.90
28244;DHT22;15510;52.512;13.300;2023-04-01T05:51:50;10.70;99.90
28244;DHT22;15510;52.512;13.300;2023-04-01T05:54:18;10.70;99.90
28244;DHT22;15510;52.512;13.300;2023-04-01T05:56:44;10.80;99.90
28244;DHT22;15510;52.512;13.300;2023-04-01T05:59:11;10.80;99.90
28244;DHT22;15510;52.512;13.300;2023-04-01T06:01:38;10.80;99.90
28244;DHT22;15510;52.512;13.300;2023-04-01T06:04:04;10.80;99.90
28244;DHT22;15510;52.512;13.300;2023-04-01T06:06:31;10.80;99.90
28244;DHT22;15510;52.512;13.300;2023-04-01T06:09:21;10.80;99.90
28244;DHT22;15510;52.512;13.300;2023-04-01T06:15:13;10.90;99.90
28244;DHT22;15510;52.512;13.300;2023-04-01T06:17:56;10.80;99.90
28244;DHT22;15510;52.512;13.300;2023-04-01T06:26:29;10.90;99.90
28244;DHT22;15510;52.512;13.300;2023-04-01T06:32:39;10.90;99.90
28244;DHT22;15510;52.512;13.300;2023-04-01T06:46:20;11.20;99.90
28244;DHT22;15510;52.512;13.300;2023-04-01T06:55:51;11.50;99.90
28244;DHT22;15510;52.512;13.300;2023-04-01T06:58:56;11.50;99.90
28244;DHT22;15510;52.512;13.300;2023-04-01T07:01:37;11.60;99.90
28244;DHT22;15510;52.512;13.300;2023-04-01T07:04:14;11.60;99.90
28244;DHT22;15510;52.512;13.300;2023-04-01T07:06:48;11.70;99.90
28244;DHT22;15510;52.512;13.300;2023-04-01T07:09:26;11.90;99.90
28244;DHT22;15510;52.512;13.300;2023-04-01T07:12:24;12.00;99.90
28244;DHT22;15510;52.512;13.300;2023-04-01T07:15:26;12.20;99.90
28244;DHT22;15510;52.512;13.300;2023-04-01T07:18:09;12.30;99.90
28244;DHT22;15510;52.512;13.300;2023-04-01T07:20:38;12.40;99.90
28244;DHT22;15510;52.512;13.300;2023-04-01T07:23:15;12.60;99.90
28244;DHT22;15510;52.512;13.300;2023-04-01T07:26:11;12.70;99.90
28244;DHT22;15510;52.512;13.300;2023-04-01T07:28:58;12.80;99.90
28244;DHT22;15510;52.512;13.300;2023-04-01T07:34:45;12.90;99.90
28244;DHT22;15510;52.512;13.300;2023-04-01T07:37:31;12.90;99.90
28244;DHT22;15510;52.512;13.300;2023-04-01T07:40:18;12.90;99.90
28244;DHT22;15510;52.512;13.300;2023-04-01T07:45:38;12.90;99.90
28244;DHT22;15510;52.512;13.300;2023-04-01T07:48:18;12.90;99.90
28244;DHT22;15510;52.512;13.300;2023-04-01T07:54:04;12.80;99.90
28244;DHT22;15510;52.512;13.300;2023-04-01T07:56:41;12.80;99.90
28244;DHT22;15510;52.512;13.300;2023-04-01T07:59:23;12.60;99.90
28244;DHT22;15510;52.512;13.300;2023-04-01T08:04:56;12.40;99.90
28244;DHT22;15510;52.512;13.300;2023-04-01T08:07:46;12.30;99.90
28244;DHT22;15510;52.512;13.300;2023-04-01T08:13:59;12.30;99.90
28244;DHT22;15510;52.512;13.300;2023-04-01T08:17:13;12.30;99.90
28244;DHT22;15510;52.512;13.300;2023-04-01T08:19:56;12.30;99.90
28244;DHT22;15510;52.512;13.300;2023-04-01T08:22:43;12.20;99.90
28244;DHT22;15510;52.512;13.300;2023-04-01T08:25:27;12.10;99.90
28244;DHT22;15510;52.512;13.300;2023-04-01T08:30:48;11.90;99.90
28244;DHT22;15510;52.512;13.300;2023-04-01T08:33:36;11.80;99.90
28244;DHT22;15510;52.512;13.300;2023-04-01T08:36:15;11.70;99.90
28244;DHT22;15510;52.512;13.300;2023-04-01T08:39:15;11.60;99.90
28244;DHT22;15510;52.512;13.300;2023-04-01T08:45:07;11.40;99.90
28244;DHT22;15510;52.512;13.300;2023-04-01T08:48:05;11.40;99.90
28244;DHT22;15510;52.512;13.300;2023-04-01T09:13:59;10.80;99.90
28244;DHT22;15510;52.512;13.300;2023-04-01T09:19:57;10.90;99.90
28244;DHT22;15510;52.512;13.300;2023-04-01T09:28:42;11.10;99.90
28244;DHT22;15510;52.512;13.300;2023-04-01T09:33:59;11.10;99.90
28244;DHT22;15510;52.512;13.300;2023-04-01T09:36:45;11.10;99.90
28244;DHT22;15510;52.512;13.300;2023-04-01T09:42:28;11.10;99.90
28244;DHT22;15510;52.512;13.300;2023-04-01T09:48:19;11.00;99.90
28244;DHT22;15510;52.512;13.300;2023-04-01T10:11:26;11.10;99.90
28244;DHT22;15510;52.512;13.300;2023-04-01T10:30:57;11.10;99.90
28244;DHT22;15510;52.512;13.300;2023-04-01T10:46:05;10.60;99.90
28244;DHT22;15510;52.512;13.300;2023-04-01T10:48:55;10.50;99.90
28244;DHT22;15510;52.512;13.300;2023-04-01T11:38:56;10.40;99.90
28244;DHT22;15510;52.512;13.300;2023-04-01T11:42:06;10.50;99.90
28244;DHT22;15510;52.512;13.300;2023-04-01T11:44:43;10.50;99.90
28244;DHT22;15510;52.512;13.300;2023-04-01T11:47:40;10.60;99.90
28244;DHT22;15510;52.512;13.300;2023-04-01T11:53:13;10.60;99.90
28244;DHT22;15510;52.512;13.300;2023-04-01T12:06:30;10.30;99.90
28244;DHT22;15510;52.512;13.300;2023-04-01T12:11:48;10.40;99.90
28244;DHT22;15510;52.512;13.300;2023-04-01T12:14:57;10.40;99.90
28244;DHT22;15510;52.512;13.300;2023-04-01T12:26:19;10.50;99.90
28244;DHT22;15510;52.512;13.300;2023-04-01T12:29:09;10.50;99.90
28244;DHT22;15510;52.512;13.300;2023-04-01T12:32:22;10.50;99.90
28244;DHT22;15510;52.512;13.300;2023-04-01T12:46:19;9.90;99.90
28244;DHT22;15510;52.512;13.300;2023-04-01T13:02:11;10.00;99.90
28244;DHT22;15510;52.512;13.300;2023-04-01T13:05:18;10.10;99.90
28244;DHT22;15510;52.512;13.300;2023-04-01T13:16:34;9.80;99.90
28244;DHT22;15510;52.512;13.300;2023-04-01T13:27:28;9.80;99.90
28244;DHT22;15510;52.512;13.300;2023-04-01T13:30:24;9.80;99.90
28244;DHT22;15510;52.512;13.300;2023-04-01T13:33:14;9.80;99.90
28244;DHT22;15510;52.512;13.300;2023-04-01T13:36:11;9.80;99.90
28244;DHT22;15510;52.512;13.300;2023-04-01T13:41:37;9.70;99.90
28244;DHT22;15510;52.512;13.300;2023-04-01T13:44:40;9.80;99.90
28244;DHT22;15510;52.512;13.300;2023-04-01T14:00:50;9.70;99.90
28244;DHT22;15510;52.512;13.300;2023-04-01T14:03:40;9.70;99.90
28244;DHT22;15510;52.512;13.300;2023-04-01T14:06:35;9.70;99.90
28244;DHT22;15510;52.512;13.300;2023-04-01T14:15:00;9.90;99.90
28244;DHT22;15510;52.512;13.300;2023-04-01T14:20:36;9.80;99.90
28244;DHT22;15510;52.512;13.300;2023-04-01T14:26:41;9.80;99.90
28244;DHT22;15510;52.512;13.300;2023-04-01T14:51:29;9.80;99.90
28244;DHT22;15510;52.512;13.300;2023-04-01T14:56:41;9.70;99.90
28244;DHT22;15510;52.512;13.300;2023-04-01T14:59:28;9.60;99.90
28244;DHT22;15510;52.512;13.300;2023-04-01T15:02:18;9.40;99.90
28244;DHT22;15510;52.512;13.300;2023-04-01T15:16:08;9.30;99.90
28244;DHT22;15510;52.512;13.300;2023-04-01T15:24:24;9.20;99.90
28244;DHT22;15510;52.512;13.300;2023-04-01T15:27:21;9.30;99.90
28244;DHT22;15510;52.512;13.300;2023-04-01T15:33:20;9.50;99.90
28244;DHT22;15510;52.512;13.300;2023-04-01T15:38:41;9.50;99.90
28244;DHT22;15510;52.512;13.300;2023-04-01T15:41:24;9.50;99.90
28244;DHT22;15510;52.512;13.300;2023-04-01T15:43:54;9.50;99.90
28244;DHT22;15510;52.512;13.300;2023-04-01T15:46:41;9.60;99.90
28244;DHT22;15510;52.512;13.300;2023-04-01T15:52:10;9.50;99.90
28244;DHT22;15510;52.512;13.300;2023-04-01T15:55:02;9.40;99.90
28244;DHT22;15510;52.512;13.300;2023-04-01T15:58:05;9.20;99.90
28244;DHT22;15510;52.512;13.300;2023-04-01T16:03:30;9.10;99.90
28244;DHT22;15510;52.512;13.300;2023-04-01T16:09:09;9.00;99.90
28244;DHT22;15510;52.512;13.300;2023-04-01T16:14:52;8.90;99.90
28244;DHT22;15510;52.512;13.300;2023-04-01T16:20:25;8.80;99.90
28244;DHT22;15510;52.512;13.300;2023-04-01T16:23:10;8.80;99.90
28244;DHT22;15510;52.512;13.300;2023-04-01T16:25:40;8.70;99.90
28244;DHT22;15510;52.512;13.300;2023-04-01T16:31:04;8.70;99.90
28244;DHT22;15510;52.512;13.300;2023-04-01T16:33:45;8.80;99.90
28244;DHT22;15510;52.512;13.300;2023-04-01T16:41:35;8.60;99.90
28244;DHT22;15510;52.512;13.300;2023-04-01T16:44:24;8.60;99.90
28244;DHT22;15510;52.512;13.300;2023-04-01T16:46:57;8.50;99.90
28244;DHT22;15510;52.512;13.300;2023-04-01T16:55:17;8.50;99.90
28244;DHT22;15510;52.512;13.300;2023-04-01T16:57:57;8.20;99.90
28244;DHT22;15510;52.512;13.300;2023-04-01T17:00:28;8.10;99.90
28244;DHT22;15510;52.512;13.300;2023-04-01T17:03:04;8.10;99.90
28244;DHT22;15510;52.512;13.300;2023-04-01T17:14:20;7.90;99.90
28244;DHT22;15510;52.512;13.300;2023-04-01T17:22:45;7.80;99.90
28244;DHT22;15510;52.512;13.300;2023-04-01T17:25:42;7.90;99.90
28244;DHT22;15510;52.512;13.300;2023-04-01T17:28:30;7.90;99.90
28244;DHT22;15510;52.512;13.300;2023-04-01T17:31:10;7.70;99.90
28244;DHT22;15510;52.512;13.300;2023-04-01T17:34:00;7.70;99.90
28244;DHT22;15510;52.512;13.300;2023-04-01T17:36:53;7.60;99.90
28244;DHT22;15510;52.512;13.300;2023-04-01T17:42:43;7.70;99.90
28244;DHT22;15510;52.512;13.300;2023-04-01T17:48:09;7.50;99.90
28244;DHT22;15510;52.512;13.300;2023-04-01T17:56:10;7.00;99.90
28244;DHT22;15510;52.512;13.300;2023-04-01T18:07:12;6.90;99.90
28244;DHT22;15510;52.512;13.300;2023-04-01T18:09:52;6.90;99.90
28244;DHT22;15510;52.512;13.300;2023-04-01T18:21:31;6.80;99.90
28244;DHT22;15510;52.512;13.300;2023-04-01T18:24:05;6.70;99.90
28244;DHT22;15510;52.512;13.300;2023-04-01T18:26:39;6.90;99.90
28244;DHT22;15510;52.512;13.300;2023-04-01T18:29:26;7.00;99.90
28244;DHT22;15510;52.512;13.300;2023-04-01T18:40:02;6.70;99.90
28244;DHT22;15510;52.512;13.300;2023-04-01T18:45:19;6.70;99.90
28244;DHT22;15510;52.512;13.300;2023-04-01T18:48:14;6.70;99.90
28244;DHT22;15510;52.512;13.300;2023-04-01T18:50:53;6.70;99.90
28244;DHT22;15510;52.512;13.300;2023-04-01T18:56:35;6.70;99.90
28244;DHT22;15510;52.512;13.300;2023-04-01T18:59:25;6.60;99.90
28244;DHT22;15510;52.512;13.300;2023-04-01T19:05:12;6.60;99.90
28244;DHT22;15510;52.512;13.300;2023-04-01T19:07:44;6.70;99.90
28244;DHT22;15510;52.512;13.300;2023-04-01T19:10:13;6.60;99.90
28244;DHT22;15510;52.512;13.300;2023-04-01T19:18:13;6.50;99.90
28244;DHT22;15510;52.512;13.300;2023-04-01T19:20:56;6.40;99.90
28244;DHT22;15510;52.512;13.300;2023-04-01T19:26:39;6.30;99.90
28244;DHT22;15510;52.512;13.300;2023-04-01T19:37:45;6.30;99.90
28244;DHT22;15510;52.512;13.300;2023-04-01T19:40:35;6.30;99.90
28244;DHT22;15510;52.512;13.300;2023-04-01T19:45:47;6.30;99.90
28244;DHT22;15510;52.512;13.300;2023-04-01T19:50:57;6.20;99.90
28244;DHT22;15510;52.512;13.300;2023-04-01T19:56:17;6.10;99.90
28244;DHT22;15510;52.512;13.300;2023-04-01T19:58:58;6.10;99.90
28244;DHT22;15510;52.512;13.300;2023-04-01T20:04:26;6.00;99.90
28244;DHT22;15510;52.512;13.300;2023-04-01T20:12:10;6.00;99.90
28244;DHT22;15510;52.512;13.300;2023-04-01T20:17:27;6.00;99.90
28244;DHT22;15510;52.512;13.300;2023-04-01T20:19:59;6.00;99.90
28244;DHT22;15510;52.512;13.300;2023-04-01T20:31:39;5.90;99.90
28244;DHT22;15510;52.512;13.300;2023-04-01T20:37:02;5.90;99.90
28244;DHT22;15510;52.512;13.300;2023-04-01T20:39:34;5.80;99.90
28244;DHT22;15510;52.512;13.300;2023-04-01T20:53:48;5.60;99.90
28244;DHT22;15510;52.512;13.300;2023-04-01T20:56:47;5.60;99.90
28244;DHT22;15510;52.512;13.300;2023-04-01T21:07:58;5.60;99.90
28244;DHT22;15510;52.512;13.300;2023-04-01T21:10:37;5.50;99.90
28244;DHT22;15510;52.512;13.300;2023-04-01T21:15:56;5.50;99.90
28244;DHT22;15510;52.512;13.300;2023-04-01T21:23:49;5.30;99.90
28244;DHT22;15510;52.512;13.300;2023-04-01T21:29:11;5.30;99.90
28244;DHT22;15510;52.512;13.300;2023-04-01T21:32:01;5.20;99.90
28244;DHT22;15510;52.512;13.300;2023-04-01T21:34:48;5.30;99.90
28244;DHT22;15510;52.512;13.300;2023-04-01T21:37:41;5.30;99.90
28244;DHT22;15510;52.512;13.300;2023-04-01T22:08:43;5.30;99.90
28244;DHT22;15510;52.512;13.300;2023-04-01T22:14:26;5.20;99.90
28244;DHT22;15510;52.512;13.300;2023-04-01T22:17:00;5.30;99.90
28244;DHT22;15510;52.512;13.300;2023-04-01T22:19:56;5.20;99.90
28244;DHT22;15510;52.512;13.300;2023-04-01T22:22:49;5.10;99.90
28244;DHT22;15510;52.512;13.300;2023-04-01T22:25:32;5.00;99.90
28244;DHT22;15510;52.512;13.300;2023-04-01T22:28:21;5.00;99.90
28244;DHT22;15510;52.512;13.300;2023-04-01T22:30:52;5.00;99.90
28244;DHT22;15510;52.512;13.300;2023-04-01T22:33:44;5.20;99.90
28244;DHT22;15510;52.512;13.300;2023-04-01T22:47:20;5.20;99.90
28244;DHT22;15510;52.512;13.300;2023-04-01T22:50:10;5.20;99.90
28244;DHT22;15510;52.512;13.300;2023-04-01T22:52:45;5.30;99.90
28244;DHT22;15510;52.512;13.300;2023-04-01T22:55:17;5.30;99.90
28244;DHT22;15510;52.512;13.300;2023-04-01T22:57:59;5.30;99.90
28244;DHT22;15510;52.512;13.300;2023-04-01T23:00:33;5.30;99.90
28244;DHT22;15510;52.512;13.300;2023-04-01T23:05:53;5.20;99.90
28244;DHT22;15510;52.512;13.300;2023-04-01T23:19:54;5.40;99.90
28244;DHT22;15510;52.512;13.300;2023-04-01T23:35:52;5.40;99.90
28244;DHT22;15510;52.512;13.300;2023-04-01T23:38:20;5.40;99.90
28244;DHT22;15510;52.512;13.300;2023-04-01T23:40:51;5.40;99.90
28244;DHT22;15510;52.512;13.300;2023-04-01T23:43:38;5.40;99.90
28244;DHT22;15510;52.512;13.300;2023-04-01T23:46:06;5.40;99.90
28244;DHT22;15510;52.512;13.300;2023-04-01T23:48:35;5.50;99.90
28244;DHT22;15510;52.512;13.300;2023-04-01T23:51:02;5.30;99.90
28244;DHT22;15510;52.512;13.300;2023-04-01T23:53:33;5.40;99.90
28244;DHT22;15510;52.512;13.300;2023-04-01T23:56:01;5.30;99.90
28244;DHT22;15510;52.512;13.300;2023-04-01T23:58:43;5.30;99.90
